Time;durP1;ratioP1;P1;durP2;ratioP2;P2;SDS_P1;SDS_P2;PMS_P1;PMS_P2;Temp;Humidity;BMP_temperature;BMP_pressure;BME280_temperature;BME280_humidity;BME280_pressure;Samples;Min_cycle;Max_cycle;Signal;HPM_P1;HPM_P2
2021/03/03 00:07:57;;;;;;;;;;;;;;;;;;;;;
2021/03/03 00:24:10;;;;;;;25.63;11.02;;;20.40;40.80;;;;;;6030333;23;101244;-82
2021/03/03 00:27:10;;;;;;;21.13;10.63;;;20.50;40.80;;;;;;6036038;23;103740;-81
2021/03/03 00:33:05;;;;;;;25.80;10.23;;;20.50;40.50;;;;;;6039621;23;101033;-83
2021/03/03 00:35:44;;;;;;;15.32;8.93;;;20.60;40.40;;;;;;6039912;23;100898;-81
2021/03/03 00:38:12;;;;;;;21.70;9.55;;;20.50;40.10;;;;;;6037881;23;101779;-82
2021/03/03 00:40:41;;;;;;;17.08;9.85;;;20.50;40.00;;;;;;6037587;23;101226;-81
2021/03/03 00:46:52;;;;;;;18.80;9.43;;;20.60;40.20;;;;;;6044606;23;101213;-79
2021/03/03 00:49:44;;;;;;;18.17;10.73;;;20.60;40.10;;;;;;6044002;23;100938;-82
2021/03/03 00:55:38;;;;;;;17.33;9.95;;;20.60;40.00;;;;;;6066518;23;101362;-80
2021/03/03 00:58:04;;;;;;;16.92;9.68;;;20.60;40.00;;;;;;6065291;23;100827;-79
2021/03/03 01:00:29;;;;;;;14.52;9.75;;;20.60;40.00;;;;;;6062524;23;101319;-80
2021/03/03 01:02:55;;;;;;;16.15;10.55;;;20.50;40.00;;;;;;6037208;23;101041;-80
2021/03/03 01:05:21;;;;;;;15.63;10.32;;;20.50;40.00;;;;;;6041692;23;105287;-80
2021/03/03 01:07:46;;;;;;;17.52;10.90;;;20.50;39.90;;;;;;6068137;23;100258;-80
2021/03/03 01:10:12;;;;;;;16.17;9.30;;;20.60;40.20;;;;;;6067326;23;131707;-82
2021/03/03 01:12:37;;;;;;;16.23;9.75;;;20.50;40.30;;;;;;6068484;23;118853;-81
2021/03/03 01:15:03;;;;;;;18.85;10.23;;;20.40;40.30;;;;;;6106719;23;101621;-81
2021/03/03 01:17:29;;;;;;;20.73;9.85;;;20.40;40.70;;;;;;6072634;23;101082;-82
2021/03/03 01:19:54;;;;;;;18.70;10.10;;;20.50;40.10;;;;;;6101258;23;130428;-81
2021/03/03 01:22:20;;;;;;;16.52;9.77;;;20.50;39.70;;;;;;6074193;23;128062;-80
2021/03/03 01:24:45;;;;;;;16.40;9.85;;;20.50;39.70;;;;;;6075993;23;100784;-80
2021/03/03 01:27:11;;;;;;;19.45;10.63;;;20.50;39.80;;;;;;6076971;22;109944;-78
2021/03/03 01:29:36;;;;;;;17.45;10.45;;;20.50;39.60;;;;;;6135810;22;101801;-80
2021/03/03 01:32:02;;;;;;;18.60;10.07;;;20.40;39.60;;;;;;6136326;22;101346;-78
2021/03/03 01:34:27;;;;;;;18.98;9.98;;;20.50;39.20;;;;;;6131758;22;102997;-80
2021/03/03 01:36:53;;;;;;;20.67;10.60;;;20.50;39.40;;;;;;6155828;22;112366;-78
2021/03/03 01:39:18;;;;;;;20.27;9.45;;;20.50;39.50;;;;;;6181684;22;131438;-79
2021/03/03 01:41:44;;;;;;;14.68;9.57;;;20.50;39.60;;;;;;6179752;22;130447;-78
2021/03/03 01:44:09;;;;;;;20.20;9.38;;;20.40;39.20;;;;;;6183048;22;100756;-78
2021/03/03 01:46:35;;;;;;;40.30;11.25;;;20.90;40.70;;;;;;6154206;22;108929;-79
2021/03/03 01:49:00;;;;;;;22.85;10.23;;;21.30;41.30;;;;;;6181792;22;129850;-79
2021/03/03 01:51:26;;;;;;;33.13;10.73;;;21.50;40.90;;;;;;6159553;22;115955;-79
2021/03/03 01:53:53;;;;;;;38.63;9.95;;;21.50;41.40;;;;;;6186055;22;101462;-79
2021/03/03 01:56:18;;;;;;;42.17;10.65;;;21.60;41.80;;;;;;6188494;22;100918;-77
2021/03/03 01:58:44;;;;;;;40.25;10.63;;;21.60;41.80;;;;;;6187642;22;105854;-78
2021/03/03 02:01:09;;;;;;;30.83;10.18;;;21.60;42.10;;;;;;6180340;22;130185;-80
2021/03/03 02:03:38;;;;;;;32.47;10.75;;;21.70;42.10;;;;;;6181169;22;112751;-80
2021/03/03 02:06:15;;;;;;;32.70;10.55;;;21.70;42.80;;;;;;6154926;22;100844;-80
2021/03/03 02:08:43;;;;;;;29.80;9.55;;;21.60;42.50;;;;;;6178917;22;101759;-79
2021/03/03 02:11:28;;;;;;;31.55;9.73;;;21.60;43.30;;;;;;6179915;22;100824;-79
2021/03/03 02:13:58;;;;;;;38.25;10.45;;;21.60;43.60;;;;;;6181049;22;100890;-79
2021/03/03 02:16:23;;;;;;;42.53;10.48;;;21.60;44.00;;;;;;6180121;22;101041;-79
2021/03/03 02:18:49;;;;;;;35.28;10.45;;;21.60;44.30;;;;;;6152902;22;132590;-79
2021/03/03 02:21:45;;;;;;;64.88;10.25;;;21.60;44.70;;;;;;6178553;22;129301;-79
2021/03/03 02:24:20;;;;;;;35.47;10.38;;;21.60;45.00;;;;;;6154916;22;100943;-79
2021/03/03 02:26:46;;;;;;;36.08;10.15;;;21.70;44.90;;;;;;6179478;22;100849;-80
2021/03/03 02:29:14;;;;;;;40.20;9.43;;;21.70;44.80;;;;;;6152505;22;104709;-80
2021/03/03 02:31:41;;;;;;;29.58;8.88;;;21.70;44.80;;;;;;6179906;22;112367;-79
2021/03/03 02:34:07;;;;;;;30.55;9.13;;;21.70;45.30;;;;;;6180363;22;100891;-80
2021/03/03 02:36:33;;;;;;;33.45;9.38;;;21.60;45.20;;;;;;6182050;22;100684;-80
2021/03/03 02:38:59;;;;;;;31.70;9.32;;;21.70;45.40;;;;;;6181483;22;113313;-79
2021/03/03 02:41:24;;;;;;;29.50;8.98;;;21.60;46.10;;;;;;6180310;22;122551;-79
2021/03/03 02:43:50;;;;;;;30.23;9.15;;;21.70;46.40;;;;;;6156512;22;112009;-80
2021/03/03 02:46:15;;;;;;;32.22;9.18;;;21.70;46.40;;;;;;6181321;22;108117;-80
2021/03/03 02:48:41;;;;;;;35.03;9.07;;;21.70;46.60;;;;;;6181334;22;101029;-79
2021/03/03 02:51:07;;;;;;;30.88;8.98;;;21.60;46.70;;;;;;6181414;22;103596;-80
2021/03/03 02:53:33;;;;;;;27.10;7.75;;;21.70;46.80;;;;;;6183084;22;100894;-79
2021/03/03 02:55:58;;;;;;;30.35;8.30;;;21.60;46.90;;;;;;6182422;22;100846;-79
2021/03/03 02:58:24;;;;;;;26.20;8.35;;;21.60;46.90;;;;;;6183856;22;101161;-80
2021/03/03 03:00:53;;;;;;;28.90;8.05;;;21.70;47.20;;;;;;6180746;22;129994;-80
2021/03/03 03:03:20;;;;;;;27.10;7.77;;;21.60;47.40;;;;;;6182384;22;100791;-78
2021/03/03 03:05:51;;;;;;;23.17;8.43;;;21.60;47.70;;;;;;6182351;22;101609;-79
2021/03/03 03:08:17;;;;;;;31.17;8.68;;;21.60;48.70;;;;;;6182520;22;103853;-79
2021/03/03 03:10:43;;;;;;;31.35;8.93;;;21.70;49.00;;;;;;6183238;22;100969;-80
2021/03/03 03:13:09;;;;;;;28.08;8.77;;;21.70;49.20;;;;;;6183121;22;100282;-78
2021/03/03 03:15:35;;;;;;;31.55;8.55;;;21.80;49.10;;;;;;6182526;22;101072;-80
2021/03/03 03:18:05;;;;;;;39.85;9.10;;;21.80;49.20;;;;;;6180100;22;129539;-82
2021/03/03 03:20:32;;;;;;;34.75;9.13;;;21.80;49.20;;;;;;6182704;22;131333;-81
2021/03/03 03:22:59;;;;;;;32.97;8.60;;;21.80;49.30;;;;;;6183846;22;100940;-79
2021/03/03 03:25:25;;;;;;;29.65;8.30;;;21.80;49.40;;;;;;6181995;22;105966;-80
2021/03/03 03:27:50;;;;;;;22.23;7.95;;;21.70;49.40;;;;;;6179613;22;130933;-80
2021/03/03 03:30:18;;;;;;;34.40;9.20;;;21.80;49.70;;;;;;6183327;22;129625;-80
2021/03/03 03:32:43;;;;;;;24.80;7.57;;;21.80;49.80;;;;;;6184368;22;105194;-80
2021/03/03 03:35:10;;;;;;;29.08;8.45;;;21.80;50.00;;;;;;6182073;22;102260;-80
2021/03/03 03:37:35;;;;;;;27.92;8.38;;;21.80;50.10;;;;;;6180429;22;119446;-81
2021/03/03 03:40:02;;;;;;;26.98;7.75;;;21.90;50.70;;;;;;6182487;22;100846;-81
2021/03/03 03:42:28;;;;;;;22.25;7.38;;;21.90;50.60;;;;;;6182808;22;100824;-80
2021/03/03 03:44:54;;;;;;;22.90;8.10;;;21.90;50.80;;;;;;6157635;22;101403;-80
2021/03/03 03:47:20;;;;;;;29.73;8.40;;;21.90;50.80;;;;;;6179828;22;128491;-81
2021/03/03 03:49:45;;;;;;;22.55;7.90;;;21.90;51.00;;;;;;6181893;22;100779;-80
2021/03/03 03:52:17;;;;;;;22.30;8.15;;;21.90;51.10;;;;;;6182739;22;100955;-84
2021/03/03 03:54:52;;;;;;;20.98;7.43;;;21.90;51.20;;;;;;6157676;22;100958;-80
2021/03/03 03:57:18;;;;;;;21.35;7.60;;;21.90;51.40;;;;;;6180819;22;115496;-79
2021/03/03 03:59:43;;;;;;;21.13;8.18;;;21.80;51.40;;;;;;6182458;22;103008;-81
2021/03/03 04:02:09;;;;;;;21.05;7.05;;;21.80;51.50;;;;;;6182086;22;109600;-81
2021/03/03 04:04:35;;;;;;;20.23;7.90;;;21.80;51.70;;;;;;6156821;22;100717;-80
2021/03/03 04:07:00;;;;;;;19.35;7.60;;;21.80;51.60;;;;;;6180431;22;114597;-78
2021/03/03 04:09:26;;;;;;;18.30;7.60;;;21.80;51.70;;;;;;6182822;22;101522;-80
2021/03/03 04:11:51;;;;;;;21.35;7.93;;;21.80;51.80;;;;;;6156019;22;110618;-80
2021/03/03 04:14:17;;;;;;;19.90;7.72;;;21.80;52.20;;;;;;6181797;22;109829;-80
2021/03/03 04:16:42;;;;;;;22.67;7.53;;;21.70;52.40;;;;;;6179475;22;131231;-80
2021/03/03 04:19:08;;;;;;;23.25;8.02;;;21.80;52.50;;;;;;6155201;22;129941;-80
2021/03/03 04:21:33;;;;;;;18.10;7.03;;;21.80;52.30;;;;;;6182528;22;111236;-80
2021/03/03 04:24:02;;;;;;;21.00;8.00;;;21.80;52.30;;;;;;6156643;22;109361;-79
2021/03/03 04:26:27;;;;;;;18.65;7.40;;;21.70;52.20;;;;;;6155073;22;125752;-81
2021/03/03 04:28:53;;;;;;;18.42;7.40;;;21.70;52.40;;;;;;6180752;22;128920;-79
2021/03/03 04:31:18;;;;;;;15.50;6.78;;;21.80;52.60;;;;;;6184116;22;100910;-81
2021/03/03 04:33:50;;;;;;;21.60;6.90;;;21.70;52.60;;;;;;6179081;22;101498;-81
2021/03/03 04:36:15;;;;;;;18.90;7.15;;;21.70;52.60;;;;;;6178861;22;103322;-81
2021/03/03 04:38:41;;;;;;;25.60;7.72;;;21.70;52.90;;;;;;6178574;22;131381;-80
2021/03/03 04:41:07;;;;;;;19.70;7.43;;;21.70;53.00;;;;;;6181026;22;100885;-81
2021/03/03 04:43:32;;;;;;;19.35;6.60;;;21.70;53.10;;;;;;6181872;22;109671;-82
2021/03/03 04:45:58;;;;;;;21.40;7.57;;;21.70;53.20;;;;;;6181253;22;104131;-82
2021/03/03 04:48:23;;;;;;;25.20;7.72;;;21.70;53.50;;;;;;6180127;22;129480;-81
2021/03/03 04:50:49;;;;;;;24.08;7.60;;;21.70;53.60;;;;;;6182877;22;104489;-81
2021/03/03 04:53:15;;;;;;;25.80;7.18;;;21.80;53.80;;;;;;6182032;22;101468;-82
2021/03/03 04:55:40;;;;;;;22.48;7.47;;;21.70;53.70;;;;;;6181541;22;103969;-82
2021/03/03 04:58:06;;;;;;;21.85;7.65;;;21.80;53.70;;;;;;6181764;22;130484;-82
2021/03/03 05:00:31;;;;;;;24.48;7.70;;;21.70;53.80;;;;;;6182086;22;111944;-81
2021/03/03 05:02:57;;;;;;;18.75;6.55;;;21.80;53.60;;;;;;6182604;22;100982;-81
2021/03/03 05:05:26;;;;;;;22.15;6.57;;;21.70;53.50;;;;;;6181848;22;104509;-81
2021/03/03 05:07:51;;;;;;;20.25;7.15;;;21.70;53.50;;;;;;6179015;22;124808;-82
2021/03/03 05:10:17;;;;;;;24.42;7.75;;;21.70;53.30;;;;;;6182675;22;111737;-80
2021/03/03 05:12:42;;;;;;;14.82;7.03;;;21.70;53.40;;;;;;6156311;22;103010;-79
2021/03/03 05:15:08;;;;;;;23.10;7.57;;;21.70;53.50;;;;;;6183794;22;100935;-82
2021/03/03 05:17:34;;;;;;;17.27;6.60;;;21.70;53.80;;;;;;6180011;22;104161;-80
2021/03/03 05:19:59;;;;;;;17.58;7.07;;;21.70;53.60;;;;;;6156341;22;112569;-80
2021/03/03 05:22:25;;;;;;;23.17;8.07;;;21.70;53.80;;;;;;6181340;22;109678;-80
2021/03/03 05:24:51;;;;;;;26.73;8.07;;;21.70;53.60;;;;;;6181281;22;129703;-80
2021/03/03 05:27:16;;;;;;;16.65;7.28;;;21.70;53.70;;;;;;6156628;22;101582;-81
2021/03/03 05:29:42;;;;;;;18.95;7.55;;;21.70;53.50;;;;;;6179368;22;109873;-81
2021/03/03 05:32:08;;;;;;;19.45;7.05;;;21.70;53.60;;;;;;6154860;22;101314;-80
2021/03/03 05:34:34;;;;;;;25.48;6.90;;;21.70;53.60;;;;;;6181085;22;104381;-81
2021/03/03 05:36:59;;;;;;;17.05;6.55;;;21.70;53.50;;;;;;6181238;22;130304;-79
2021/03/03 05:39:25;;;;;;;20.95;7.30;;;21.70;53.80;;;;;;6180788;22;112007;-78
2021/03/03 05:41:50;;;;;;;21.38;7.07;;;21.70;54.10;;;;;;6181691;22;107633;-81
2021/03/03 05:44:16;;;;;;;20.40;6.80;;;21.80;54.20;;;;;;6181408;22;132232;-81
2021/03/03 05:46:42;;;;;;;16.30;7.32;;;21.70;54.00;;;;;;6180920;22;130198;-82
2021/03/03 05:49:08;;;;;;;17.38;7.40;;;21.80;54.10;;;;;;6181925;22;101563;-79
2021/03/03 05:51:34;;;;;;;17.90;6.70;;;21.70;53.80;;;;;;6185644;22;110430;-79
2021/03/03 05:54:00;;;;;;;19.27;6.90;;;21.70;54.20;;;;;;6183286;22;103542;-81
2021/03/03 05:56:26;;;;;;;26.00;7.75;;;21.70;54.10;;;;;;6183058;22;101187;-82
2021/03/03 05:58:51;;;;;;;17.17;6.70;;;21.70;54.40;;;;;;6186386;22;100277;-81
2021/03/03 06:01:17;;;;;;;26.88;6.95;;;21.80;54.60;;;;;;6184037;22;109862;-81
2021/03/03 06:03:43;;;;;;;21.20;6.70;;;21.70;54.60;;;;;;6183626;22;101319;-81
2021/03/03 06:06:08;;;;;;;22.08;7.20;;;21.70;54.50;;;;;;6182015;22;129762;-82
2021/03/03 06:08:34;;;;;;;21.65;7.00;;;21.80;54.40;;;;;;6183462;22;111768;-79
2021/03/03 06:11:00;;;;;;;16.58;6.40;;;21.70;54.50;;;;;;6160121;22;101152;-81
2021/03/03 06:13:25;;;;;;;17.23;5.80;;;21.70;54.50;;;;;;6183720;22;102131;-82
2021/03/03 06:15:51;;;;;;;17.98;6.47;;;21.70;54.50;;;;;;6182704;22;102518;-79
2021/03/03 06:18:17;;;;;;;15.80;6.25;;;21.70;54.20;;;;;;6184848;22;100792;-80
2021/03/03 06:20:45;;;;;;;20.63;6.93;;;21.70;54.30;;;;;;6184053;22;100996;-82
2021/03/03 06:23:15;;;;;;;17.13;7.22;;;21.70;54.60;;;;;;6182564;22;122716;-80
2021/03/03 06:25:41;;;;;;;26.25;7.22;;;21.70;55.10;;;;;;6158185;22;103078;-81
2021/03/03 06:28:07;;;;;;;17.90;6.57;;;21.70;55.20;;;;;;6183117;22;101243;-80
2021/03/03 06:30:32;;;;;;;23.88;7.15;;;21.70;54.70;;;;;;6184401;22;100998;-81
2021/03/03 06:33:00;;;;;;;19.55;6.90;;;21.70;54.20;;;;;;6185376;22;115584;-83
2021/03/03 06:35:43;;;;;;;23.20;8.07;;;21.70;54.40;;;;;;6184657;22;101357;-82
2021/03/03 06:38:11;;;;;;;16.50;6.45;;;21.70;54.10;;;;;;6184324;22;100942;-80
2021/03/03 06:41:09;;;;;;;13.95;6.78;;;21.70;54.40;;;;;;6183133;22;101074;-80
2021/03/03 06:43:35;;;;;;;20.20;7.20;;;21.70;54.10;;;;;;6105875;22;131248;-79
2021/03/03 06:46:17;;;;;;;17.60;6.85;;;21.70;54.10;;;;;;6180258;22;128977;-82
2021/03/03 06:48:44;;;;;;;14.35;7.07;;;21.70;54.20;;;;;;6180749;22;100917;-81
2021/03/03 06:51:29;;;;;;;15.75;6.28;;;21.80;54.50;;;;;;6183152;22;101484;-82
2021/03/03 06:53:57;;;;;;;21.63;6.53;;;21.80;54.30;;;;;;6182080;22;101890;-82
2021/03/03 06:56:36;;;;;;;17.40;6.07;;;21.90;55.20;;;;;;6182974;22;101437;-81
2021/03/03 06:59:21;;;;;;;21.08;6.60;;;21.80;54.50;;;;;;6186407;22;101326;-82
2021/03/03 07:02:02;;;;;;;18.83;6.35;;;21.80;54.50;;;;;;6187462;22;100807;-81
2021/03/03 07:04:40;;;;;;;20.77;6.80;;;21.80;55.20;;;;;;6159678;22;102979;-80
2021/03/03 07:07:12;;;;;;;18.10;6.70;;;21.90;54.70;;;;;;6183150;22;128587;-80
2021/03/03 07:09:58;;;;;;;17.63;6.47;;;21.80;55.00;;;;;;6182238;22;101259;-80
2021/03/03 07:12:26;;;;;;;21.23;6.28;;;21.80;55.10;;;;;;6183733;22;100834;-80
2021/03/03 07:14:58;;;;;;;16.17;6.93;;;21.80;55.00;;;;;;6156982;22;103663;-79
2021/03/03 07:17:30;;;;;;;17.15;7.03;;;21.80;54.60;;;;;;6181991;22;101511;-80
2021/03/03 07:20:15;;;;;;;13.38;5.95;;;21.80;54.70;;;;;;6182765;22;101228;-80
2021/03/03 07:22:47;;;;;;;20.95;6.78;;;21.80;54.50;;;;;;6182258;22;101588;-81
2021/03/03 07:25:15;;;;;;;16.05;6.85;;;21.90;54.50;;;;;;6182396;22;101572;-81
2021/03/03 07:27:42;;;;;;;18.52;6.60;;;21.90;54.20;;;;;;6180920;22;101667;-81
2021/03/03 07:30:11;;;;;;;17.40;7.47;;;21.90;54.30;;;;;;6182434;22;101045;-81
2021/03/03 07:32:37;;;;;;;;;;;21.90;53.80;;;;;;6186035;22;101135;-80
2021/03/03 07:35:04;;;;;;;15.52;6.07;;;22.00;53.90;;;;;;6138950;22;130838;-80
2021/03/03 07:37:53;;;;;;;22.67;6.68;;;22.00;53.50;;;;;;6041405;23;102744;-80
2021/03/03 07:40:18;;;;;;;22.27;6.88;;;22.00;53.20;;;;;;6044128;23;101095;-80
2021/03/03 07:42:54;;;;;;;21.70;7.32;;;22.10;53.20;;;;;;6094859;23;101015;-79
2021/03/03 07:45:19;;;;;;;17.92;6.50;;;22.10;53.50;;;;;;6019120;23;126150;-79
2021/03/03 07:47:45;;;;;;;17.65;7.00;;;22.20;53.90;;;;;;6066073;23;107459;-80
2021/03/03 07:50:13;;;;;;;20.27;6.40;;;22.20;53.70;;;;;;6042791;23;111833;-79
2021/03/03 07:52:58;;;;;;;15.30;6.38;;;22.30;54.30;;;;;;6044035;23;100899;-80
2021/03/03 07:55:24;;;;;;;18.10;7.60;;;22.30;54.00;;;;;;6068125;23;100925;-79
2021/03/03 07:57:51;;;;;;;21.60;7.25;;;22.30;53.80;;;;;;6042932;23;100933;-80
2021/03/03 08:00:20;;;;;;;31.55;7.85;;;22.30;53.80;;;;;;6044448;23;101060;-80
2021/03/03 08:02:50;;;;;;;23.15;8.05;;;22.30;53.60;;;;;;6095605;23;101057;-81
2021/03/03 08:05:27;;;;;;;24.92;7.35;;;22.30;53.50;;;;;;6068144;23;103349;-79
2021/03/03 08:08:26;;;;;;;30.48;7.85;;;22.30;53.30;;;;;;6093805;23;100765;-79
2021/03/03 08:10:57;;;;;;;28.15;7.75;;;22.30;53.40;;;;;;6095982;23;100713;-79
2021/03/03 08:13:36;;;;;;;26.45;7.32;;;22.30;53.40;;;;;;6070066;23;101294;-81
2021/03/03 08:16:03;;;;;;;28.77;8.45;;;22.20;53.60;;;;;;6093789;23;101037;-80
2021/03/03 08:18:30;;;;;;;17.92;7.15;;;22.20;53.60;;;;;;6044559;23;102667;-79
2021/03/03 08:21:00;;;;;;;27.50;7.43;;;22.20;53.90;;;;;;6068877;23;101352;-80
2021/03/03 08:23:35;;;;;;;24.17;7.78;;;22.20;53.40;;;;;;6045379;23;100863;-79
2021/03/03 08:26:16;;;;;;;23.05;7.25;;;22.30;53.00;;;;;;6092825;23;100826;-80
2021/03/03 08:28:51;;;;;;;24.30;8.20;;;22.40;53.60;;;;;;6046778;23;103833;-80
2021/03/03 08:31:26;;;;;;;25.23;8.25;;;22.40;53.30;;;;;;6067941;23;101137;-80
2021/03/03 08:33:52;;;;;;;22.83;7.55;;;22.30;52.40;;;;;;6095457;23;100928;-79
2021/03/03 08:36:20;;;;;;;21.65;8.05;;;22.30;52.90;;;;;;6093077;23;102844;-80
2021/03/03 08:38:55;;;;;;;23.77;7.38;;;22.30;52.70;;;;;;6094619;23;100803;-80
2021/03/03 08:41:29;;;;;;;26.65;7.90;;;22.30;53.40;;;;;;6071634;23;100805;-80
2021/03/03 08:44:14;;;;;;;19.98;7.38;;;22.30;53.10;;;;;;6095532;23;100776;-81
2021/03/03 08:46:44;;;;;;;23.65;7.72;;;22.40;53.10;;;;;;6068336;23;100825;-81
2021/03/03 08:49:09;;;;;;;21.13;7.32;;;22.50;52.40;;;;;;6095178;23;100940;-82
2021/03/03 08:51:39;;;;;;;24.50;8.18;;;22.60;52.40;;;;;;6068718;23;101168;-81
2021/03/03 08:54:05;;;;;;;;;;;22.70;51.90;;;;;;6069412;23;102887;-81
2021/03/03 08:56:51;;;;;;;22.67;7.28;;;22.80;50.70;;;;;;6067920;23;124023;-81
2021/03/03 08:59:29;;;;;;;32.65;7.90;;;22.90;50.40;;;;;;6067867;23;100798;-80
2021/03/03 09:02:08;;;;;;;17.05;7.22;;;23.10;49.90;;;;;;6095273;23;100833;-79
2021/03/03 09:04:34;;;;;;;20.40;7.40;;;23.20;50.00;;;;;;6047161;23;101134;-80
2021/03/03 09:07:03;;;;;;;21.00;8.30;;;23.40;49.50;;;;;;6094171;23;101471;-79
2021/03/03 09:09:34;;;;;;;23.37;8.00;;;23.50;49.00;;;;;;6069593;23;100912;-81
2021/03/03 09:12:02;;;;;;;24.65;7.68;;;23.60;48.70;;;;;;6073565;23;100563;-81
2021/03/03 09:14:28;;;;;;;24.17;7.63;;;23.70;48.50;;;;;;6046054;23;101015;-80
2021/03/03 09:16:58;;;;;;;22.92;8.15;;;23.80;48.20;;;;;;6067967;23;103825;-80
2021/03/03 09:19:24;;;;;;;19.23;8.07;;;23.90;47.30;;;;;;6043800;23;102731;-80
2021/03/03 09:21:50;;;;;;;16.08;7.53;;;23.90;47.00;;;;;;6068577;23;101483;-80
2021/03/03 09:24:16;;;;;;;22.75;7.93;;;24.00;46.90;;;;;;6068679;23;100752;-80
2021/03/03 09:26:43;;;;;;;17.50;7.97;;;24.00;46.70;;;;;;6043896;23;101435;-80
2021/03/03 09:29:26;;;;;;;17.15;7.80;;;24.10;46.60;;;;;;6045704;23;101533;-80
2021/03/03 09:31:52;;;;;;;15.43;6.97;;;24.10;46.60;;;;;;6045969;23;100750;-81
2021/03/03 09:34:17;;;;;;;13.70;6.78;;;24.20;46.60;;;;;;6044298;23;100826;-81
2021/03/03 09:36:52;;;;;;;13.38;6.65;;;24.20;46.70;;;;;;6044014;23;102829;-80
2021/03/03 09:39:20;;;;;;;22.17;7.85;;;24.30;46.70;;;;;;6044000;23;101508;-80
2021/03/03 09:42:00;;;;;;;21.02;8.18;;;24.40;46.90;;;;;;6044342;23;100856;-81
2021/03/03 09:44:25;;;;;;;;;;;24.50;46.50;;;;;;6096931;23;100809;-80
2021/03/03 09:46:59;;;;;;;18.80;8.35;;;24.50;45.90;;;;;;6045954;23;101382;-79
2021/03/03 09:49:28;;;;;;;21.00;7.05;;;24.50;45.50;;;;;;6068494;23;101121;-80
2021/03/03 09:51:54;;;;;;;25.40;7.35;;;24.60;46.70;;;;;;6044222;23;101012;-80
2021/03/03 09:54:30;;;;;;;16.67;6.93;;;24.60;46.30;;;;;;6068930;23;100956;-81
2021/03/03 09:57:06;;;;;;;14.52;6.20;;;24.70;46.50;;;;;;6072879;23;104923;-81
2021/03/03 09:59:32;;;;;;;22.33;7.15;;;24.90;46.20;;;;;;6095843;23;100990;-79
2021/03/03 10:01:58;;;;;;;13.23;6.63;;;25.00;45.70;;;;;;6068541;23;101460;-81
2021/03/03 10:04:27;;;;;;;18.92;6.63;;;25.20;45.20;;;;;;6044989;23;100781;-80
2021/03/03 10:06:53;;;;;;;17.83;6.80;;;25.30;44.70;;;;;;6042952;23;125494;-79
2021/03/03 10:09:19;;;;;;;18.80;7.20;;;25.50;44.20;;;;;;6044304;23;101013;-78
2021/03/03 10:11:45;;;;;;;16.75;6.85;;;25.70;43.80;;;;;;6070497;23;100942;-79
2021/03/03 10:14:10;;;;;;;21.83;6.95;;;25.90;43.20;;;;;;6068985;23;100893;-80
2021/03/03 10:16:36;;;;;;;21.40;7.38;;;26.20;42.80;;;;;;6043327;23;131010;-81
2021/03/03 10:19:19;;;;;;;18.67;6.80;;;26.40;42.30;;;;;;6047318;23;100887;-82
2021/03/03 10:21:45;;;;;;;19.30;6.90;;;26.60;41.70;;;;;;6093412;23;110267;-79
2021/03/03 10:24:25;;;;;;;20.17;6.85;;;26.80;41.40;;;;;;6095614;23;101101;-80
2021/03/03 10:26:51;;;;;;;;;;;27.00;40.90;;;;;;6044803;23;100798;-81
2021/03/03 10:29:39;;;;;;;19.17;7.20;;;27.10;41.00;;;;;;6101192;23;101047;-80
2021/03/03 10:32:09;;;;;;;17.08;6.70;;;27.10;41.00;;;;;;6061014;23;100915;-79
2021/03/03 10:34:41;;;;;;;16.65;6.57;;;27.10;41.30;;;;;;6031715;23;100858;-81
2021/03/03 10:37:07;;;;;;;17.35;6.65;;;27.00;41.40;;;;;;6072646;23;101952;-80
2021/03/03 10:39:34;;;;;;;16.05;6.25;;;27.00;41.30;;;;;;6070092;23;117225;-80
2021/03/03 10:42:06;;;;;;;12.95;6.05;;;27.00;41.40;;;;;;6104145;23;100855;-80
2021/03/03 10:44:41;;;;;;;14.80;6.25;;;27.10;41.60;;;;;;6098545;23;100833;-78
2021/03/03 10:47:06;;;;;;;16.33;6.53;;;27.20;41.40;;;;;;6050832;23;110719;-77
2021/03/03 10:49:33;;;;;;;18.38;6.20;;;27.20;41.20;;;;;;6100749;23;101094;-78
2021/03/03 10:51:58;;;;;;;11.82;5.88;;;27.10;41.60;;;;;;6051404;23;101554;-79
2021/03/03 10:54:31;;;;;;;16.00;6.50;;;27.00;41.70;;;;;;6047943;23;108454;-80
2021/03/03 10:57:09;;;;;;;18.92;6.43;;;26.60;42.90;;;;;;6068414;23;103461;-80
2021/03/03 10:59:38;;;;;;;16.98;6.57;;;26.00;44.40;;;;;;6097143;23;101411;-80
2021/03/03 11:02:04;;;;;;;18.65;6.97;;;25.60;45.10;;;;;;6051760;23;100846;-79
2021/03/03 11:04:43;;;;;;;19.63;7.18;;;25.50;45.50;;;;;;6046893;23;101164;-77
2021/03/03 11:07:10;;;;;;;25.42;7.60;;;25.30;46.30;;;;;;6094756;23;101444;-80
2021/03/03 11:09:35;;;;;;;32.55;7.80;;;25.20;46.30;;;;;;6050256;23;101050;-79
2021/03/03 11:12:01;;;;;;;39.33;8.60;;;25.20;46.90;;;;;;6094007;23;103792;-79
2021/03/03 11:14:28;;;;;;;35.97;10.25;;;25.10;46.90;;;;;;6047387;23;101180;-79
2021/03/03 11:16:54;;;;;;;47.90;11.25;;;25.10;47.00;;;;;;6071277;23;103726;-77
2021/03/03 11:19:20;;;;;;;47.35;10.18;;;25.20;47.80;;;;;;6096673;23;101258;-76
2021/03/03 11:21:45;;;;;;;54.38;10.05;;;25.20;47.60;;;;;;6066732;23;111940;-77
2021/03/03 11:24:11;;;;;;;37.88;10.35;;;25.20;47.50;;;;;;6070130;23;101103;-79
2021/03/03 11:26:38;;;;;;;48.67;10.93;;;25.10;47.50;;;;;;6069674;23;100978;-79
2021/03/03 11:29:03;;;;;;;45.58;10.82;;;25.10;47.60;;;;;;6069312;23;116052;-80
2021/03/03 11:31:29;;;;;;;58.20;11.75;;;25.10;47.00;;;;;;6090791;23;111356;-80
2021/03/03 11:33:55;;;;;;;55.95;11.73;;;25.10;47.60;;;;;;6104012;23;101071;-75
2021/03/03 11:36:20;;;;;;;96.32;15.85;;;25.10;48.20;;;;;;6071170;23;100883;-78
2021/03/03 11:38:46;;;;;;;29.90;13.93;;;25.10;46.70;;;;;;6046126;23;130710;-77
2021/03/03 11:41:11;;;;;;;30.40;15.13;;;24.70;37.70;;;;;;6092369;23;112603;-78
2021/03/03 11:43:37;;;;;;;40.63;15.68;;;24.00;39.30;;;;;;6090932;23;112166;-77
2021/03/03 11:46:02;;;;;;;32.63;16.42;;;23.70;39.80;;;;;;6064312;23;130083;-77
2021/03/03 11:48:28;;;;;;;40.03;23.98;;;23.40;39.30;;;;;;6064664;23;103773;-77
2021/03/03 11:50:54;;;;;;;44.72;25.40;;;23.00;37.60;;;;;;6065624;23;111343;-81
2021/03/03 11:53:19;;;;;;;39.60;21.67;;;22.80;38.00;;;;;;6092371;23;100892;-76
2021/03/03 11:55:45;;;;;;;33.78;19.10;;;22.90;40.10;;;;;;6091592;23;107540;-79
2021/03/03 11:58:10;;;;;;;29.60;18.23;;;23.50;40.80;;;;;;6038215;23;121667;-77
2021/03/03 12:00:36;;;;;;;32.55;17.63;;;23.90;40.70;;;;;;6088366;23;113982;-77
2021/03/03 12:03:02;;;;;;;32.30;18.05;;;24.20;41.10;;;;;;6091464;23;111543;-77
2021/03/03 12:05:27;;;;;;;41.10;19.23;;;23.90;38.30;;;;;;6066835;23;102046;-79
2021/03/03 12:07:53;;;;;;;35.08;16.10;;;23.80;40.50;;;;;;6092335;23;129064;-79
2021/03/03 12:10:18;;;;;;;33.25;15.35;;;24.10;41.00;;;;;;6070352;23;111969;-77
2021/03/03 12:12:44;;;;;;;40.63;15.38;;;24.20;41.60;;;;;;6072410;23;100774;-76
2021/03/03 12:15:10;;;;;;;30.98;13.65;;;24.40;42.10;;;;;;6068892;23;105363;-78
2021/03/03 12:17:35;;;;;;;28.58;12.38;;;24.50;42.80;;;;;;6064974;23;100242;-77
2021/03/03 12:20:05;;;;;;;29.05;11.60;;;24.50;42.80;;;;;;6066624;23;100769;-78
2021/03/03 12:22:31;;;;;;;35.38;14.70;;;24.50;43.50;;;;;;6066965;23;101277;-78
2021/03/03 12:24:56;;;;;;;37.10;17.13;;;24.30;42.10;;;;;;6063055;23;131110;-79
2021/03/03 12:27:22;;;;;;;56.05;21.25;;;24.20;41.10;;;;;;6065538;23;129052;-78
2021/03/03 12:29:47;;;;;;;39.67;19.52;;;24.00;40.20;;;;;;6047067;23;109593;-77
2021/03/03 12:32:13;;;;;;;48.45;19.75;;;23.90;39.70;;;;;;6076962;23;100532;-78
2021/03/03 12:34:39;;;;;;;41.28;19.02;;;24.10;40.40;;;;;;6099574;23;100843;-79
2021/03/03 12:37:04;;;;;;;48.80;21.02;;;24.10;39.50;;;;;;6073450;23;103814;-77
2021/03/03 12:39:30;;;;;;;46.45;21.50;;;24.10;38.50;;;;;;6100998;23;100904;-78
2021/03/03 12:41:56;;;;;;;42.17;20.08;;;24.00;38.80;;;;;;6076463;23;101031;-78
2021/03/03 12:44:21;;;;;;;31.38;20.05;;;23.90;38.90;;;;;;6073934;23;105724;-77
2021/03/03 12:46:47;;;;;;;36.40;19.50;;;23.90;38.50;;;;;;6098203;23;102675;-79
2021/03/03 12:49:12;;;;;;;38.38;21.98;;;24.00;38.30;;;;;;6071833;23;100720;-78
2021/03/03 12:51:38;;;;;;;36.55;20.20;;;24.00;37.80;;;;;;6095095;23;101108;-77
2021/03/03 12:54:04;;;;;;;43.00;20.67;;;24.20;37.30;;;;;;6094554;23;120637;-78
2021/03/03 12:56:29;;;;;;;38.75;19.85;;;24.10;38.20;;;;;;6091548;23;108980;-78
2021/03/03 12:58:55;;;;;;;39.17;18.92;;;24.00;38.20;;;;;;6088392;23;111157;-77
2021/03/03 13:01:20;;;;;;;32.10;17.63;;;24.00;38.90;;;;;;6066622;23;108435;-80
2021/03/03 13:03:46;;;;;;;36.47;19.08;;;24.10;38.40;;;;;;6093278;23;121217;-80